<?xml version="1.0" encoding="UTF-8" standalone="no" ?>
<gpx xmlns="http://www.topografix.com/GPX/1/1" xmlns:xsi="http://www.w3.org/2001/XMLSchema-instance" xsi:schemaLocation="http://www.topografix.com/GPX/1/1 http://www.topografix.com/GPX/1/1/gpx.xsd" version="1.1" creator="VisuGPX - https://www.visugpx.com">
  <metadata>
    <name>2026-03-09-46-luzech rando douce</name>
    <desc><![CDATA[Randonnée de 8 km sur les hauteurs de Luzech, pas de difficulté de belles vues sur la vallée et rivière haute ; de beaux sentiers sous les arbres]]></desc>
  </metadata>
  <trk>
    <name><![CDATA[Rando Douce Luzech  09-03-2026-23479719]]></name>
    <trkseg>
      <trkpt lat="44.49607" lon="1.2793">
        <ele>267</ele>
        <time>2026-03-05T17:51:47Z</time>
      </trkpt>
      <trkpt lat="44.49617" lon="1.27852">
        <ele>263</ele>
        <time>2026-03-05T17:53:02Z</time>
      </trkpt>
      <trkpt lat="44.49657" lon="1.27796">
        <ele>262</ele>
        <time>2026-03-05T17:54:18Z</time>
      </trkpt>
      <trkpt lat="44.49682" lon="1.27739">
        <ele>262</ele>
        <time>2026-03-05T17:55:22Z</time>
      </trkpt>
      <trkpt lat="44.49716" lon="1.27683">
        <ele>265</ele>
        <time>2026-03-05T17:56:32Z</time>
      </trkpt>
      <trkpt lat="44.49768" lon="1.27601">
        <ele>271</ele>
        <time>2026-03-05T17:58:16Z</time>
      </trkpt>
      <trkpt lat="44.49825" lon="1.27533">
        <ele>272</ele>
        <time>2026-03-05T17:59:56Z</time>
      </trkpt>
      <trkpt lat="44.49878" lon="1.27453">
        <ele>268</ele>
        <time>2026-03-05T18:01:40Z</time>
      </trkpt>
      <trkpt lat="44.4991" lon="1.27343">
        <ele>262</ele>
        <time>2026-03-05T18:03:33Z</time>
      </trkpt>
      <trkpt lat="44.49933" lon="1.27278">
        <ele>260</ele>
        <time>2026-03-05T18:04:42Z</time>
      </trkpt>
      <trkpt lat="44.49924" lon="1.2719">
        <ele>256</ele>
        <time>2026-03-05T18:06:07Z</time>
      </trkpt>
      <trkpt lat="44.4991" lon="1.27139">
        <ele>253</ele>
        <time>2026-03-05T18:06:59Z</time>
      </trkpt>
      <trkpt lat="44.49908" lon="1.27081">
        <ele>251</ele>
        <time>2026-03-05T18:07:54Z</time>
      </trkpt>
      <trkpt lat="44.49897" lon="1.26993">
        <ele>249</ele>
        <time>2026-03-05T18:09:19Z</time>
      </trkpt>
      <trkpt lat="44.49889" lon="1.26871">
        <ele>250</ele>
        <time>2026-03-05T18:11:15Z</time>
      </trkpt>
      <trkpt lat="44.49878" lon="1.26775">
        <ele>247</ele>
        <time>2026-03-05T18:12:48Z</time>
      </trkpt>
      <trkpt lat="44.4987" lon="1.2669">
        <ele>241</ele>
        <time>2026-03-05T18:14:10Z</time>
      </trkpt>
      <trkpt lat="44.49838" lon="1.26613">
        <ele>237</ele>
        <time>2026-03-05T18:15:34Z</time>
      </trkpt>
      <trkpt lat="44.49823" lon="1.26517">
        <ele>233</ele>
        <time>2026-03-05T18:17:08Z</time>
      </trkpt>
      <trkpt lat="44.49798" lon="1.26432">
        <ele>233</ele>
        <time>2026-03-05T18:18:36Z</time>
      </trkpt>
      <trkpt lat="44.49802" lon="1.2636">
        <ele>237</ele>
        <time>2026-03-05T18:19:44Z</time>
      </trkpt>
      <trkpt lat="44.49766" lon="1.26296">
        <ele>236</ele>
        <time>2026-03-05T18:21:02Z</time>
      </trkpt>
      <trkpt lat="44.49736" lon="1.26232">
        <ele>236</ele>
        <time>2026-03-05T18:22:15Z</time>
      </trkpt>
      <trkpt lat="44.49728" lon="1.26155">
        <ele>235</ele>
        <time>2026-03-05T18:23:29Z</time>
      </trkpt>
      <trkpt lat="44.49732" lon="1.26043">
        <ele>235</ele>
        <time>2026-03-05T18:25:16Z</time>
      </trkpt>
      <trkpt lat="44.49777" lon="1.2595">
        <ele>237</ele>
        <time>2026-03-05T18:27:03Z</time>
      </trkpt>
      <trkpt lat="44.49768" lon="1.25886">
        <ele>241</ele>
        <time>2026-03-05T18:28:05Z</time>
      </trkpt>
      <trkpt lat="44.49758" lon="1.25809">
        <ele>243</ele>
        <time>2026-03-05T18:29:19Z</time>
      </trkpt>
      <trkpt lat="44.49747" lon="1.25777">
        <ele>243</ele>
        <time>2026-03-05T18:29:53Z</time>
      </trkpt>
      <trkpt lat="44.49779" lon="1.25724">
        <ele>240</ele>
        <time>2026-03-05T18:30:59Z</time>
      </trkpt>
      <trkpt lat="44.49802" lon="1.25666">
        <ele>240</ele>
        <time>2026-03-05T18:32:02Z</time>
      </trkpt>
      <trkpt lat="44.49825" lon="1.2561">
        <ele>238</ele>
        <time>2026-03-05T18:33:04Z</time>
      </trkpt>
      <trkpt lat="44.49836" lon="1.25554">
        <ele>234</ele>
        <time>2026-03-05T18:33:59Z</time>
      </trkpt>
      <trkpt lat="44.49819" lon="1.25517">
        <ele>230</ele>
        <time>2026-03-05T18:34:41Z</time>
      </trkpt>
      <trkpt lat="44.49787" lon="1.25474">
        <ele>226</ele>
        <time>2026-03-05T18:35:40Z</time>
      </trkpt>
      <trkpt lat="44.49774" lon="1.254">
        <ele>226</ele>
        <time>2026-03-05T18:36:53Z</time>
      </trkpt>
      <trkpt lat="44.4976" lon="1.25344">
        <ele>232</ele>
        <time>2026-03-05T18:37:49Z</time>
      </trkpt>
      <trkpt lat="44.49758" lon="1.25259">
        <ele>238</ele>
        <time>2026-03-05T18:39:10Z</time>
      </trkpt>
      <trkpt lat="44.49739" lon="1.25213">
        <ele>241</ele>
        <time>2026-03-05T18:40:01Z</time>
      </trkpt>
      <trkpt lat="44.49722" lon="1.2516">
        <ele>241</ele>
        <time>2026-03-05T18:40:56Z</time>
      </trkpt>
      <trkpt lat="44.49673" lon="1.252">
        <ele>245</ele>
        <time>2026-03-05T18:42:12Z</time>
      </trkpt>
      <trkpt lat="44.4962" lon="1.25237">
        <ele>250</ele>
        <time>2026-03-05T18:43:31Z</time>
      </trkpt>
      <trkpt lat="44.49557" lon="1.25298">
        <ele>255</ele>
        <time>2026-03-05T18:45:13Z</time>
      </trkpt>
      <trkpt lat="44.49504" lon="1.25344">
        <ele>259</ele>
        <time>2026-03-05T18:46:36Z</time>
      </trkpt>
      <trkpt lat="44.49466" lon="1.25386">
        <ele>257</ele>
        <time>2026-03-05T18:47:41Z</time>
      </trkpt>
      <trkpt lat="44.49425" lon="1.25429">
        <ele>255</ele>
        <time>2026-03-05T18:48:49Z</time>
      </trkpt>
      <trkpt lat="44.49411" lon="1.25453">
        <ele>254</ele>
        <time>2026-03-05T18:49:18Z</time>
      </trkpt>
      <trkpt lat="44.49387" lon="1.25408">
        <ele>249</ele>
        <time>2026-03-05T18:50:12Z</time>
      </trkpt>
      <trkpt lat="44.49347" lon="1.25381">
        <ele>240</ele>
        <time>2026-03-05T18:51:11Z</time>
      </trkpt>
      <trkpt lat="44.49322" lon="1.25346">
        <ele>237</ele>
        <time>2026-03-05T18:51:58Z</time>
      </trkpt>
      <trkpt lat="44.49288" lon="1.2532">
        <ele>237</ele>
        <time>2026-03-05T18:52:50Z</time>
      </trkpt>
      <trkpt lat="44.49248" lon="1.25314">
        <ele>237</ele>
        <time>2026-03-05T18:53:44Z</time>
      </trkpt>
      <trkpt lat="44.49214" lon="1.25338">
        <ele>237</ele>
        <time>2026-03-05T18:54:34Z</time>
      </trkpt>
      <trkpt lat="44.49193" lon="1.25394">
        <ele>238</ele>
        <time>2026-03-05T18:55:35Z</time>
      </trkpt>
      <trkpt lat="44.49165" lon="1.25455">
        <ele>239</ele>
        <time>2026-03-05T18:56:44Z</time>
      </trkpt>
      <trkpt lat="44.49146" lon="1.25376">
        <ele>236</ele>
        <time>2026-03-05T18:58:03Z</time>
      </trkpt>
      <trkpt lat="44.49104" lon="1.2533">
        <ele>234</ele>
        <time>2026-03-05T18:59:14Z</time>
      </trkpt>
      <trkpt lat="44.49047" lon="1.25253">
        <ele>229</ele>
        <time>2026-03-05T19:01:00Z</time>
      </trkpt>
      <trkpt lat="44.49011" lon="1.25181">
        <ele>231</ele>
        <time>2026-03-05T19:02:23Z</time>
      </trkpt>
      <trkpt lat="44.48971" lon="1.25102">
        <ele>230</ele>
        <time>2026-03-05T19:03:56Z</time>
      </trkpt>
      <trkpt lat="44.48933" lon="1.25032">
        <ele>224</ele>
        <time>2026-03-05T19:05:19Z</time>
      </trkpt>
      <trkpt lat="44.48878" lon="1.24969">
        <ele>213</ele>
        <time>2026-03-05T19:06:54Z</time>
      </trkpt>
      <trkpt lat="44.48831" lon="1.24875">
        <ele>215</ele>
        <time>2026-03-05T19:08:44Z</time>
      </trkpt>
      <trkpt lat="44.4877" lon="1.24764">
        <ele>228</ele>
        <time>2026-03-05T19:10:57Z</time>
      </trkpt>
      <trkpt lat="44.48853" lon="1.24915">
        <ele>213</ele>
        <time>2026-03-05T19:13:58Z</time>
      </trkpt>
      <trkpt lat="44.4891" lon="1.25014">
        <ele>219</ele>
        <time>2026-03-05T19:15:59Z</time>
      </trkpt>
      <trkpt lat="44.48984" lon="1.25126">
        <ele>232</ele>
        <time>2026-03-05T19:18:25Z</time>
      </trkpt>
      <trkpt lat="44.49028" lon="1.25221">
        <ele>228</ele>
        <time>2026-03-05T19:20:13Z</time>
      </trkpt>
      <trkpt lat="44.49075" lon="1.25298">
        <ele>232</ele>
        <time>2026-03-05T19:21:49Z</time>
      </trkpt>
      <trkpt lat="44.49151" lon="1.25389">
        <ele>236</ele>
        <time>2026-03-05T19:24:03Z</time>
      </trkpt>
      <trkpt lat="44.4917" lon="1.25487">
        <ele>239</ele>
        <time>2026-03-05T19:25:39Z</time>
      </trkpt>
      <trkpt lat="44.49172" lon="1.2557">
        <ele>238</ele>
        <time>2026-03-05T19:26:58Z</time>
      </trkpt>
      <trkpt lat="44.49185" lon="1.25634">
        <ele>240</ele>
        <time>2026-03-05T19:28:02Z</time>
      </trkpt>
      <trkpt lat="44.49239" lon="1.25684">
        <ele>247</ele>
        <time>2026-03-05T19:29:28Z</time>
      </trkpt>
      <trkpt lat="44.49263" lon="1.25737">
        <ele>249</ele>
        <time>2026-03-05T19:30:28Z</time>
      </trkpt>
      <trkpt lat="44.4928" lon="1.25796">
        <ele>250</ele>
        <time>2026-03-05T19:31:28Z</time>
      </trkpt>
      <trkpt lat="44.49295" lon="1.25865">
        <ele>251</ele>
        <time>2026-03-05T19:32:37Z</time>
      </trkpt>
      <trkpt lat="44.49343" lon="1.25934">
        <ele>257</ele>
        <time>2026-03-05T19:34:09Z</time>
      </trkpt>
      <trkpt lat="44.49371" lon="1.25974">
        <ele>259</ele>
        <time>2026-03-05T19:35:02Z</time>
      </trkpt>
      <trkpt lat="44.4939" lon="1.25998">
        <ele>261</ele>
        <time>2026-03-05T19:35:36Z</time>
      </trkpt>
      <trkpt lat="44.49407" lon="1.26051">
        <ele>262</ele>
        <time>2026-03-05T19:36:31Z</time>
      </trkpt>
      <trkpt lat="44.49453" lon="1.26011">
        <ele>265</ele>
        <time>2026-03-05T19:37:44Z</time>
      </trkpt>
      <trkpt lat="44.49495" lon="1.25971">
        <ele>265</ele>
        <time>2026-03-05T19:38:51Z</time>
      </trkpt>
      <trkpt lat="44.49557" lon="1.25942">
        <ele>262</ele>
        <time>2026-03-05T19:40:19Z</time>
      </trkpt>
      <trkpt lat="44.49612" lon="1.25956">
        <ele>259</ele>
        <time>2026-03-05T19:41:33Z</time>
      </trkpt>
      <trkpt lat="44.4962" lon="1.26022">
        <ele>258</ele>
        <time>2026-03-05T19:42:37Z</time>
      </trkpt>
      <trkpt lat="44.4962" lon="1.26086">
        <ele>257</ele>
        <time>2026-03-05T19:43:38Z</time>
      </trkpt>
      <trkpt lat="44.49629" lon="1.26144">
        <ele>254</ele>
        <time>2026-03-05T19:44:34Z</time>
      </trkpt>
      <trkpt lat="44.49641" lon="1.26219">
        <ele>249</ele>
        <time>2026-03-05T19:45:48Z</time>
      </trkpt>
      <trkpt lat="44.49658" lon="1.26293">
        <ele>239</ele>
        <time>2026-03-05T19:47:02Z</time>
      </trkpt>
      <trkpt lat="44.49683" lon="1.26341">
        <ele>232</ele>
        <time>2026-03-05T19:47:58Z</time>
      </trkpt>
      <trkpt lat="44.49743" lon="1.26299">
        <ele>235</ele>
        <time>2026-03-05T19:49:28Z</time>
      </trkpt>
      <trkpt lat="44.49793" lon="1.26336">
        <ele>237</ele>
        <time>2026-03-05T19:50:43Z</time>
      </trkpt>
      <trkpt lat="44.49812" lon="1.26458">
        <ele>233</ele>
        <time>2026-03-05T19:52:42Z</time>
      </trkpt>
      <trkpt lat="44.49829" lon="1.26546">
        <ele>234</ele>
        <time>2026-03-05T19:54:09Z</time>
      </trkpt>
      <trkpt lat="44.49859" lon="1.26658">
        <ele>239</ele>
        <time>2026-03-05T19:56:03Z</time>
      </trkpt>
      <trkpt lat="44.4988" lon="1.26817">
        <ele>249</ele>
        <time>2026-03-05T19:58:37Z</time>
      </trkpt>
      <trkpt lat="44.49893" lon="1.26913">
        <ele>251</ele>
        <time>2026-03-05T20:00:10Z</time>
      </trkpt>
      <trkpt lat="44.49906" lon="1.27036">
        <ele>250</ele>
        <time>2026-03-05T20:02:08Z</time>
      </trkpt>
      <trkpt lat="44.49918" lon="1.27107">
        <ele>253</ele>
        <time>2026-03-05T20:03:17Z</time>
      </trkpt>
      <trkpt lat="44.4992" lon="1.27211">
        <ele>257</ele>
        <time>2026-03-05T20:04:56Z</time>
      </trkpt>
      <trkpt lat="44.49925" lon="1.27299">
        <ele>261</ele>
        <time>2026-03-05T20:06:20Z</time>
      </trkpt>
      <trkpt lat="44.49927" lon="1.27408">
        <ele>266</ele>
        <time>2026-03-05T20:08:04Z</time>
      </trkpt>
      <trkpt lat="44.49935" lon="1.27509">
        <ele>269</ele>
        <time>2026-03-05T20:09:41Z</time>
      </trkpt>
      <trkpt lat="44.4995" lon="1.27602">
        <ele>268</ele>
        <time>2026-03-05T20:11:12Z</time>
      </trkpt>
      <trkpt lat="44.49956" lon="1.27711">
        <ele>270</ele>
        <time>2026-03-05T20:12:56Z</time>
      </trkpt>
      <trkpt lat="44.49961" lon="1.2774">
        <ele>271</ele>
        <time>2026-03-05T20:13:24Z</time>
      </trkpt>
      <trkpt lat="44.49967" lon="1.27818">
        <ele>275</ele>
        <time>2026-03-05T20:14:39Z</time>
      </trkpt>
      <trkpt lat="44.49975" lon="1.27889">
        <ele>278</ele>
        <time>2026-03-05T20:15:47Z</time>
      </trkpt>
      <trkpt lat="44.50026" lon="1.27956">
        <ele>278</ele>
        <time>2026-03-05T20:17:20Z</time>
      </trkpt>
      <trkpt lat="44.50024" lon="1.28006">
        <ele>279</ele>
        <time>2026-03-05T20:18:08Z</time>
      </trkpt>
      <trkpt lat="44.5002" lon="1.2811">
        <ele>275</ele>
        <time>2026-03-05T20:19:47Z</time>
      </trkpt>
      <trkpt lat="44.49963" lon="1.28118">
        <ele>274</ele>
        <time>2026-03-05T20:21:04Z</time>
      </trkpt>
      <trkpt lat="44.49901" lon="1.28124">
        <ele>273</ele>
        <time>2026-03-05T20:22:27Z</time>
      </trkpt>
      <trkpt lat="44.49855" lon="1.28139">
        <ele>272</ele>
        <time>2026-03-05T20:23:30Z</time>
      </trkpt>
      <trkpt lat="44.49793" lon="1.28134">
        <ele>272</ele>
        <time>2026-03-05T20:24:53Z</time>
      </trkpt>
      <trkpt lat="44.49745" lon="1.28134">
        <ele>271</ele>
        <time>2026-03-05T20:25:57Z</time>
      </trkpt>
      <trkpt lat="44.49707" lon="1.28076">
        <ele>273</ele>
        <time>2026-03-05T20:27:12Z</time>
      </trkpt>
      <trkpt lat="44.49681" lon="1.28033">
        <ele>272</ele>
        <time>2026-03-05T20:28:05Z</time>
      </trkpt>
      <trkpt lat="44.49633" lon="1.27985">
        <ele>270</ele>
        <time>2026-03-05T20:29:24Z</time>
      </trkpt>
    </trkseg>
  </trk>
</gpx>